Time;durP1;ratioP1;P1;durP2;ratioP2;P2;SDS_P1;SDS_P2;PMS_P1;PMS_P2;Temp;Humidity;BMP_temperature;BMP_pressure;BME280_temperature;BME280_humidity;BME280_pressure;Samples;Min_cycle;Max_cycle;Signal;HPM_P1;HPM_P2
2021/12/23 00:02:13;;;;;;;43.50;21.63;;;-1.10;99.90;;;;;;5095162;28;20443;-57
2021/12/23 00:04:40;;;;;;;37.20;21.30;;;-1.10;99.90;;;;;;5094698;28;20471;-57
2021/12/23 00:07:08;;;;;;;33.43;20.03;;;-1.00;99.90;;;;;;5094693;28;20486;-57
2021/12/23 00:10:01;;;;;;;32.80;20.43;;;-0.80;99.90;;;;;;5094790;28;20444;-57
2021/12/23 00:12:28;;;;;;;34.60;21.03;;;-0.90;99.90;;;;;;5094512;28;20524;-57
2021/12/23 00:14:55;;;;;;;33.07;19.50;;;-0.80;99.90;;;;;;5094623;28;20446;-57
2021/12/23 00:17:39;;;;;;;38.60;21.60;;;-0.80;99.90;;;;;;5094384;28;20455;-57
2021/12/23 00:25:32;;;;;;;34.97;18.50;;;-0.90;99.90;;;;;;5094411;28;20604;-57
2021/12/23 00:28:00;;;;;;;38.60;21.20;;;-0.90;99.90;;;;;;5094546;28;20446;-57
2021/12/23 00:30:27;;;;;;;32.20;20.47;;;-1.00;99.90;;;;;;5094276;28;20468;-57
2021/12/23 00:32:57;;;;;;;37.60;20.90;;;-1.00;99.90;;;;;;5094474;28;20736;-57
2021/12/23 00:35:25;;;;;;;37.33;19.83;;;-0.90;99.90;;;;;;5094344;28;20443;-57
2021/12/23 00:37:58;;;;;;;40.27;22.57;;;-0.90;99.90;;;;;;5094800;28;20458;-57
2021/12/23 00:40:25;;;;;;;34.50;21.13;;;-0.90;99.90;;;;;;5094329;28;20894;-57
2021/12/23 00:42:53;;;;;;;38.37;21.73;;;-0.90;99.90;;;;;;5094346;28;20448;-57
2021/12/23 00:45:21;;;;;;;31.80;19.90;;;-0.90;99.90;;;;;;5094333;28;20824;-57
2021/12/23 00:47:48;;;;;;;35.90;20.63;;;-0.80;99.90;;;;;;5093855;28;20447;-57
2021/12/23 00:50:17;;;;;;;32.47;19.37;;;-0.80;99.90;;;;;;5093938;28;20467;-57
2021/12/23 00:52:45;;;;;;;40.87;24.07;;;-0.80;99.90;;;;;;5093920;28;20450;-57
2021/12/23 00:55:13;;;;;;;35.30;21.00;;;-0.90;99.90;;;;;;5093973;28;20447;-57
2021/12/23 00:57:41;;;;;;;35.27;21.43;;;-0.80;99.90;;;;;;5093734;28;20442;-57
2021/12/23 01:00:11;;;;;;;36.60;21.17;;;-0.90;99.90;;;;;;5093981;28;20467;-56
2021/12/23 01:02:43;;;;;;;42.53;20.53;;;-1.00;99.90;;;;;;5093932;28;20454;-56
2021/12/23 01:05:10;;;;;;;30.50;19.57;;;-1.00;99.90;;;;;;5093538;28;20573;-57
2021/12/23 01:07:39;;;;;;;34.10;20.87;;;-1.00;99.90;;;;;;5092438;28;20549;-57
2021/12/23 01:10:07;;;;;;;34.63;19.60;;;-0.80;99.90;;;;;;5093622;28;20984;-57
2021/12/23 01:12:41;;;;;;;30.83;19.57;;;-0.80;99.90;;;;;;5094181;28;20475;-57
2021/12/23 01:15:16;;;;;;;33.90;20.10;;;-0.90;99.90;;;;;;5093488;28;20420;-57
2021/12/23 01:17:54;;;;;;;34.27;19.23;;;-0.90;99.90;;;;;;5093385;28;20894;-57
2021/12/23 01:20:27;;;;;;;33.77;21.03;;;-1.00;99.90;;;;;;5093600;28;20469;-56
2021/12/23 01:22:58;;;;;;;33.17;19.47;;;-1.10;99.90;;;;;;5093936;28;20431;-57
2021/12/23 01:25:25;;;;;;;37.47;20.07;;;-1.10;99.90;;;;;;5093429;28;20486;-57
2021/12/23 01:27:52;;;;;;;34.23;22.60;;;-1.10;99.90;;;;;;5093366;28;20538;-57
2021/12/23 01:30:20;;;;;;;36.00;21.53;;;-1.10;99.90;;;;;;5093193;28;20986;-56
2021/12/23 01:32:50;;;;;;;36.30;19.63;;;-1.20;99.90;;;;;;5093618;28;20439;-57
2021/12/23 01:35:19;;;;;;;35.20;21.30;;;-1.20;99.90;;;;;;5093169;28;20946;-57
2021/12/23 01:37:46;;;;;;;40.57;22.00;;;-1.10;99.90;;;;;;5093511;28;20432;-57
2021/12/23 01:40:18;;;;;;;41.13;21.03;;;-1.20;99.90;;;;;;5093204;28;20965;-57
2021/12/23 01:42:46;;;;;;;41.17;22.23;;;-1.20;99.90;;;;;;5093507;28;20428;-57
2021/12/23 01:45:18;;;;;;;34.90;21.97;;;-1.20;99.90;;;;;;5093098;28;20993;-57
2021/12/23 01:47:46;;;;;;;38.40;20.77;;;-1.20;99.90;;;;;;5093392;28;20545;-57
2021/12/23 01:50:15;;;;;;;40.47;22.27;;;-1.10;99.90;;;;;;5093384;28;20468;-57
2021/12/23 01:52:42;;;;;;;35.40;19.70;;;-1.10;99.90;;;;;;5093315;28;20451;-57
2021/12/23 01:55:11;;;;;;;32.40;20.80;;;-1.10;99.90;;;;;;5093002;28;20439;-57
2021/12/23 01:57:40;;;;;;;37.33;21.43;;;-1.20;99.90;;;;;;5093346;28;20446;-57
2021/12/23 02:00:11;;;;;;;36.43;21.37;;;-1.20;99.90;;;;;;5093128;28;20491;-57
2021/12/23 02:02:38;;;;;;;40.93;20.30;;;-1.10;99.90;;;;;;5093098;28;20428;-57
2021/12/23 02:05:06;;;;;;;30.17;19.47;;;-1.10;99.90;;;;;;5093186;28;20494;-57
2021/12/23 02:07:33;;;;;;;41.40;19.33;;;-0.90;99.90;;;;;;5092770;28;20471;-57
2021/12/23 02:10:01;;;;;;;41.10;19.77;;;-1.00;99.90;;;;;;5094691;28;20482;-57
2021/12/23 02:12:29;;;;;;;30.97;21.17;;;-1.00;99.90;;;;;;5097335;28;20439;-57
2021/12/23 02:14:58;;;;;;;36.97;18.47;;;-1.10;99.90;;;;;;5097283;28;20440;-57
2021/12/23 02:17:25;;;;;;;36.80;19.80;;;-1.10;99.90;;;;;;5096894;28;20452;-57
2021/12/23 02:19:56;;;;;;;33.07;21.10;;;-1.10;99.90;;;;;;5096727;28;20471;-56
2021/12/23 02:22:27;;;;;;;30.57;19.07;;;-1.10;99.90;;;;;;5097006;28;20432;-57
2021/12/23 02:24:54;;;;;;;36.47;20.20;;;-1.00;99.90;;;;;;5096824;28;20580;-57
2021/12/23 02:27:21;;;;;;;34.03;21.30;;;-1.00;99.90;;;;;;5096651;28;20427;-57
2021/12/23 02:29:48;;;;;;;29.10;18.77;;;-1.00;99.90;;;;;;5096644;28;20428;-57
2021/12/23 02:32:15;;;;;;;32.87;19.27;;;-0.90;99.90;;;;;;5096759;28;20447;-57
2021/12/23 02:34:43;;;;;;;36.77;19.90;;;-0.80;99.90;;;;;;5096409;28;20436;-57
2021/12/23 02:37:12;;;;;;;30.30;19.57;;;-1.00;99.90;;;;;;5096869;28;20506;-57
2021/12/23 02:39:42;;;;;;;33.80;22.03;;;-1.00;99.90;;;;;;5096877;28;20451;-57
2021/12/23 02:42:09;;;;;;;28.33;19.80;;;-0.90;99.90;;;;;;5096779;28;20447;-57
2021/12/23 02:44:36;;;;;;;28.43;18.20;;;-0.80;99.90;;;;;;5096409;28;20447;-57
2021/12/23 02:47:04;;;;;;;23.67;17.17;;;-0.80;99.90;;;;;;5096233;28;20447;-57
2021/12/23 02:49:31;;;;;;;33.17;18.07;;;-0.60;99.90;;;;;;5096099;28;20534;-57
2021/12/23 02:51:58;;;;;;;33.07;19.60;;;-0.70;99.90;;;;;;5096470;28;20443;-57
2021/12/23 02:54:27;;;;;;;40.30;18.37;;;-0.60;99.90;;;;;;5096419;28;20427;-57
2021/12/23 02:56:54;;;;;;;32.83;17.97;;;-0.60;99.90;;;;;;5096362;28;20439;-57
2021/12/23 02:59:21;;;;;;;33.63;22.10;;;-0.50;99.90;;;;;;5096262;28;20542;-57
2021/12/23 03:01:48;;;;;;;29.93;19.33;;;-0.50;99.90;;;;;;5096337;28;20473;-56
2021/12/23 03:04:15;;;;;;;30.50;18.67;;;-0.50;99.90;;;;;;5096212;28;20523;-57
2021/12/23 03:06:42;;;;;;;30.07;18.80;;;-0.50;99.90;;;;;;5095740;28;20489;-57
2021/12/23 03:09:09;;;;;;;27.97;17.57;;;-0.60;99.90;;;;;;5096458;28;20434;-57
2021/12/23 03:11:40;;;;;;;23.70;16.27;;;-0.60;99.90;;;;;;5096018;28;20468;-57
2021/12/23 03:14:08;;;;;;;28.60;17.33;;;-0.70;99.90;;;;;;5096085;28;20905;-57
2021/12/23 03:16:38;;;;;;;30.60;17.47;;;-0.80;99.90;;;;;;5095823;28;20787;-57
2021/12/23 03:19:06;;;;;;;29.83;19.07;;;-0.90;99.90;;;;;;5095870;28;20522;-57
2021/12/23 03:21:33;;;;;;;30.17;17.33;;;-0.70;99.90;;;;;;5094410;28;20470;-57
2021/12/23 03:24:00;;;;;;;26.70;17.20;;;-0.60;99.90;;;;;;5095692;28;20447;-57
2021/12/23 03:26:28;;;;;;;28.77;17.17;;;-0.60;99.90;;;;;;5095805;28;20483;-57
2021/12/23 03:28:56;;;;;;;24.33;17.47;;;-0.50;99.90;;;;;;5095759;28;20451;-57
2021/12/23 03:31:23;;;;;;;31.97;19.00;;;-0.60;99.90;;;;;;5095369;28;20477;-57
2021/12/23 03:33:51;;;;;;;30.60;16.77;;;-0.60;99.90;;;;;;5095819;28;20447;-61
2021/12/23 03:36:18;;;;;;;24.37;16.40;;;-0.50;99.90;;;;;;5095613;28;20930;-57
2021/12/23 03:38:45;;;;;;;22.63;15.20;;;-0.50;99.90;;;;;;5095383;28;20438;-57
2021/12/23 03:41:14;;;;;;;30.17;17.80;;;-0.50;99.90;;;;;;5095263;28;20839;-57
2021/12/23 03:43:42;;;;;;;27.40;15.77;;;-0.50;99.90;;;;;;5095121;28;20451;-57
2021/12/23 03:46:11;;;;;;;28.20;17.20;;;-0.60;99.90;;;;;;5095377;28;20475;-57
2021/12/23 03:48:38;;;;;;;30.73;19.27;;;-0.60;99.90;;;;;;5095520;28;20481;-56
2021/12/23 03:51:05;;;;;;;33.20;17.90;;;-0.60;99.90;;;;;;5094917;28;20850;-57
2021/12/23 03:53:32;;;;;;;22.57;15.40;;;-0.50;99.90;;;;;;5095002;28;20934;-57
2021/12/23 03:56:00;;;;;;;26.47;16.83;;;-0.40;99.90;;;;;;5095115;28;20446;-57
2021/12/23 03:58:27;;;;;;;27.90;16.47;;;-0.50;99.90;;;;;;5095184;28;20443;-57
2021/12/23 04:00:54;;;;;;;27.90;17.30;;;-0.70;99.90;;;;;;5095087;28;20469;-57
2021/12/23 04:03:23;;;;;;;25.83;16.83;;;-0.60;99.90;;;;;;5095234;28;20517;-57
2021/12/23 04:05:50;;;;;;;27.20;16.50;;;-0.50;99.90;;;;;;5094767;28;20991;-57
2021/12/23 04:08:17;;;;;;;26.77;16.90;;;-0.50;99.90;;;;;;5094553;28;20479;-57
2021/12/23 04:10:44;;;;;;;29.93;16.93;;;-0.40;99.90;;;;;;5095028;28;20553;-57
2021/12/23 04:13:11;;;;;;;26.87;16.43;;;-0.30;99.90;;;;;;5094832;28;20446;-57
2021/12/23 04:15:38;;;;;;;28.83;16.23;;;-0.20;99.90;;;;;;5094886;28;20530;-57
2021/12/23 04:18:06;;;;;;;27.50;15.33;;;-0.20;99.90;;;;;;5094464;28;20447;-57
2021/12/23 04:20:45;;;;;;;29.07;18.87;;;-0.20;99.90;;;;;;5094763;28;20466;-57
2021/12/23 04:23:13;;;;;;;30.80;18.43;;;-0.10;99.90;;;;;;5094492;28;20430;-56
2021/12/23 04:25:40;;;;;;;29.10;16.80;;;-0.10;99.90;;;;;;5094625;28;20573;-57
2021/12/23 04:28:07;;;;;;;27.47;17.33;;;-0.10;99.90;;;;;;5094988;28;20443;-57
2021/12/23 04:30:34;;;;;;;27.33;15.10;;;-0.10;99.90;;;;;;5094262;28;20482;-57
2021/12/23 04:33:01;;;;;;;28.90;16.90;;;-0.10;99.90;;;;;;5093795;28;20479;-57
2021/12/23 04:35:28;;;;;;;26.23;15.67;;;0.00;99.90;;;;;;5094443;28;20443;-56
2021/12/23 04:37:57;;;;;;;23.13;15.90;;;0.10;99.90;;;;;;5094376;28;20797;-57
2021/12/23 04:40:24;;;;;;;22.83;16.00;;;0.00;99.90;;;;;;5094319;28;20577;-57
2021/12/23 04:42:51;;;;;;;32.37;17.27;;;-0.10;99.90;;;;;;5094498;28;20443;-57
2021/12/23 04:45:18;;;;;;;22.40;16.53;;;-0.20;99.90;;;;;;5094401;28;20443;-57
2021/12/23 04:47:46;;;;;;;23.53;15.50;;;-0.20;99.90;;;;;;5093933;28;20804;-56
2021/12/23 04:50:15;;;;;;;22.50;14.97;;;-0.20;99.90;;;;;;5094089;28;20471;-57
2021/12/23 04:52:44;;;;;;;26.13;16.70;;;-0.30;99.90;;;;;;5094287;28;20443;-57
2021/12/23 04:55:14;;;;;;;28.10;16.70;;;-0.20;99.90;;;;;;5094000;28;20448;-57
2021/12/23 04:57:41;;;;;;;26.10;17.60;;;-0.10;99.90;;;;;;5094302;28;20434;-57
2021/12/23 05:00:11;;;;;;;30.20;17.60;;;-0.10;99.90;;;;;;5094030;28;20455;-57
2021/12/23 05:02:39;;;;;;;27.20;16.60;;;0.00;99.90;;;;;;5094275;28;20539;-57
2021/12/23 05:05:08;;;;;;;27.27;17.57;;;0.00;99.90;;;;;;5093876;28;20450;-57
2021/12/23 05:07:35;;;;;;;27.37;16.10;;;-0.10;99.90;;;;;;5093552;28;20483;-57
2021/12/23 05:10:02;;;;;;;21.80;15.70;;;0.00;99.90;;;;;;5093722;28;20921;-57
2021/12/23 05:12:36;;;;;;;22.70;15.50;;;0.00;99.90;;;;;;5093933;28;20442;-57
2021/12/23 05:15:04;;;;;;;24.80;16.20;;;0.10;99.90;;;;;;5093771;28;20435;-57
2021/12/23 05:17:31;;;;;;;21.80;15.87;;;0.00;99.90;;;;;;5093859;28;20808;-57
2021/12/23 05:19:58;;;;;;;26.87;15.93;;;0.10;99.90;;;;;;5093469;28;20554;-57
2021/12/23 05:22:25;;;;;;;25.53;14.50;;;0.00;99.90;;;;;;5093695;28;20534;-57
2021/12/23 05:24:52;;;;;;;22.07;14.77;;;0.10;99.90;;;;;;5093490;28;20521;-57
2021/12/23 05:27:19;;;;;;;31.97;18.60;;;0.10;99.90;;;;;;5093510;28;20479;-57
2021/12/23 05:29:48;;;;;;;21.77;14.10;;;0.10;99.90;;;;;;5093173;28;20782;-57
2021/12/23 05:32:15;;;;;;;23.37;14.40;;;0.10;99.90;;;;;;5093723;28;20443;-57
2021/12/23 05:34:42;;;;;;;24.97;17.47;;;0.20;99.90;;;;;;5093186;28;20453;-57
2021/12/23 05:37:09;;;;;;;25.50;15.67;;;0.10;99.90;;;;;;5093681;28;20446;-57
2021/12/23 05:39:37;;;;;;;28.03;15.23;;;0.00;99.90;;;;;;5093509;28;20534;-57
2021/12/23 05:42:04;;;;;;;31.93;16.63;;;0.10;99.90;;;;;;5093393;28;20527;-57
2021/12/23 05:44:32;;;;;;;24.53;15.87;;;0.00;99.90;;;;;;5092286;28;21005;-57
2021/12/23 05:47:00;;;;;;;26.83;17.20;;;0.00;99.90;;;;;;5093132;28;20474;-57
2021/12/23 05:49:27;;;;;;;26.77;15.93;;;0.00;99.90;;;;;;5093539;28;20526;-57
2021/12/23 05:51:54;;;;;;;28.13;16.30;;;0.10;99.90;;;;;;5093189;28;20478;-57
2021/12/23 05:54:22;;;;;;;28.13;15.50;;;0.10;99.90;;;;;;5093239;28;20447;-57
2021/12/23 05:56:50;;;;;;;22.57;18.37;;;0.10;99.90;;;;;;5093437;28;20455;-57
2021/12/23 05:59:17;;;;;;;27.80;16.87;;;0.10;99.90;;;;;;5092935;28;20873;-57
2021/12/23 06:01:44;;;;;;;25.37;16.13;;;0.10;99.90;;;;;;5092824;28;20467;-57
2021/12/23 06:04:12;;;;;;;22.20;15.67;;;0.10;99.90;;;;;;5093082;28;20475;-57
2021/12/23 06:06:39;;;;;;;26.47;15.80;;;-0.10;99.90;;;;;;5092791;28;20573;-57
2021/12/23 06:09:07;;;;;;;26.03;17.03;;;0.00;99.90;;;;;;5092846;28;20438;-57
2021/12/23 06:11:34;;;;;;;22.60;15.20;;;0.20;99.90;;;;;;5093199;28;20469;-57
2021/12/23 06:14:01;;;;;;;22.90;14.40;;;0.10;99.90;;;;;;5092965;28;20818;-57
2021/12/23 06:16:28;;;;;;;24.83;15.70;;;0.20;99.90;;;;;;5093114;28;20535;-57
2021/12/23 06:18:55;;;;;;;25.03;16.60;;;0.20;99.90;;;;;;5092914;28;20447;-57
2021/12/23 06:21:27;;;;;;;30.53;16.10;;;0.20;99.90;;;;;;5092940;28;20467;-58
2021/12/23 06:23:54;;;;;;;27.13;16.60;;;0.10;99.90;;;;;;5092707;28;20530;-57
2021/12/23 06:26:22;;;;;;;26.83;17.50;;;0.20;99.90;;;;;;5092673;28;20479;-57
2021/12/23 06:28:50;;;;;;;22.60;14.80;;;0.20;99.90;;;;;;5092694;28;20930;-57
2021/12/23 06:31:17;;;;;;;25.57;18.03;;;0.10;99.90;;;;;;5092978;28;20470;-57
2021/12/23 06:33:44;;;;;;;24.47;16.10;;;0.10;99.90;;;;;;5092835;28;20443;-57
2021/12/23 06:36:13;;;;;;;25.13;15.50;;;0.00;99.90;;;;;;5093071;28;20460;-57
2021/12/23 06:38:43;;;;;;;31.90;19.63;;;0.20;99.90;;;;;;5092593;28;20455;-57
2021/12/23 06:41:10;;;;;;;22.67;16.23;;;0.10;99.90;;;;;;5092866;28;20470;-57
2021/12/23 06:43:38;;;;;;;23.53;16.17;;;0.00;99.90;;;;;;5092612;28;20963;-57
2021/12/23 06:46:05;;;;;;;23.87;15.47;;;0.10;99.90;;;;;;5092361;28;20475;-57
2021/12/23 06:48:33;;;;;;;28.47;17.03;;;0.30;99.90;;;;;;5092504;28;20454;-57
2021/12/23 06:51:00;;;;;;;26.63;17.17;;;0.30;99.90;;;;;;5092701;28;20570;-57
2021/12/23 06:53:28;;;;;;;27.33;16.77;;;0.20;99.90;;;;;;5092668;28;20501;-57
2021/12/23 06:55:56;;;;;;;26.70;16.47;;;0.30;99.90;;;;;;5093857;28;20542;-57
2021/12/23 06:58:25;;;;;;;28.47;16.97;;;0.30;99.90;;;;;;5096547;28;20549;-57
2021/12/23 07:00:53;;;;;;;24.90;16.43;;;0.30;99.90;;;;;;5096096;28;20467;-57
2021/12/23 07:03:21;;;;;;;30.20;17.07;;;0.20;99.90;;;;;;5096315;28;20443;-57
2021/12/23 07:05:55;;;;;;;26.33;15.93;;;0.20;99.90;;;;;;5095866;28;20555;-57
2021/12/23 07:08:27;;;;;;;33.27;18.17;;;0.20;99.90;;;;;;5095866;28;20492;-57
2021/12/23 07:10:56;;;;;;;24.00;16.23;;;0.30;99.90;;;;;;5096196;28;20478;-57
2021/12/23 07:13:24;;;;;;;30.23;17.83;;;0.30;99.90;;;;;;5095826;28;20587;-57
2021/12/23 07:15:51;;;;;;;27.03;16.63;;;0.40;99.90;;;;;;5095951;28;20451;-57
2021/12/23 07:18:18;;;;;;;25.97;16.03;;;0.40;99.90;;;;;;5095976;28;20800;-57
2021/12/23 07:20:45;;;;;;;26.73;16.07;;;0.40;99.90;;;;;;5095428;28;20891;-57
2021/12/23 07:23:12;;;;;;;22.57;15.93;;;0.40;99.90;;;;;;5095905;28;20496;-57
2021/12/23 07:25:39;;;;;;;25.57;15.33;;;0.50;99.90;;;;;;5095571;28;20538;-57
2021/12/23 07:28:08;;;;;;;24.07;16.40;;;0.40;99.90;;;;;;5095749;28;20502;-57
2021/12/23 07:30:35;;;;;;;24.97;16.73;;;0.40;99.90;;;;;;5095647;28;20501;-57
2021/12/23 07:33:02;;;;;;;25.73;17.03;;;0.50;99.90;;;;;;5095347;28;20542;-57
2021/12/23 07:35:30;;;;;;;30.07;14.07;;;0.30;99.90;;;;;;5095420;28;20468;-57
2021/12/23 07:38:00;;;;;;;25.03;17.20;;;0.30;99.90;;;;;;5095285;28;20444;-57
2021/12/23 07:40:28;;;;;;;25.30;15.27;;;0.30;99.90;;;;;;5095675;28;20828;-57
2021/12/23 07:42:57;;;;;;;29.30;18.00;;;0.40;99.90;;;;;;5095528;28;20466;-57
2021/12/23 07:45:27;;;;;;;26.40;17.53;;;0.50;99.90;;;;;;5095119;28;20514;-57
2021/12/23 07:47:54;;;;;;;25.57;15.87;;;0.60;99.90;;;;;;5095521;28;20493;-57
2021/12/23 07:50:22;;;;;;;19.70;14.80;;;0.60;99.90;;;;;;5095082;28;20546;-56
2021/12/23 07:52:50;;;;;;;25.90;16.13;;;0.50;99.90;;;;;;5095312;28;20534;-57
2021/12/23 07:55:17;;;;;;;22.40;15.30;;;0.50;99.90;;;;;;5095442;28;20451;-57
2021/12/23 07:57:44;;;;;;;32.40;17.00;;;0.60;99.90;;;;;;5095116;28;20539;-57
2021/12/23 08:00:13;;;;;;;28.60;17.90;;;0.60;99.90;;;;;;5095022;28;20471;-56
2021/12/23 08:02:42;;;;;;;24.77;15.60;;;0.70;99.90;;;;;;5094935;28;20798;-58
2021/12/23 08:05:10;;;;;;;19.63;13.37;;;0.70;99.90;;;;;;5095248;28;20509;-56
2021/12/23 08:07:37;;;;;;;24.87;15.37;;;0.90;99.90;;;;;;5093954;28;20483;-56
2021/12/23 08:10:05;;;;;;;27.33;15.47;;;0.90;99.90;;;;;;5094914;28;20467;-56
2021/12/23 08:12:33;;;;;;;25.80;16.60;;;0.90;99.90;;;;;;5094823;28;20934;-56
2021/12/23 08:15:00;;;;;;;28.87;16.80;;;0.80;99.90;;;;;;5094476;28;20977;-57
2021/12/23 08:17:27;;;;;;;26.43;15.37;;;0.70;99.90;;;;;;5094847;28;20471;-56
2021/12/23 08:19:56;;;;;;;22.20;14.77;;;0.70;99.90;;;;;;5094797;28;20489;-57
2021/12/23 08:22:23;;;;;;;32.73;16.20;;;0.80;99.90;;;;;;5094724;28;20455;-57
2021/12/23 08:24:51;;;;;;;22.10;15.27;;;1.00;99.90;;;;;;5094624;28;20448;-57
2021/12/23 08:27:20;;;;;;;23.30;16.43;;;1.20;99.90;;;;;;5094637;28;20479;-57
2021/12/23 08:29:47;;;;;;;24.27;14.47;;;1.30;99.90;;;;;;5094402;28;20443;-57
2021/12/23 08:32:14;;;;;;;19.10;12.90;;;1.50;99.90;;;;;;5094410;28;20482;-56
2021/12/23 08:34:41;;;;;;;19.67;12.97;;;1.60;99.90;;;;;;5094105;28;20964;-57
2021/12/23 08:37:11;;;;;;;27.77;15.77;;;1.70;99.90;;;;;;5094139;28;20451;-57
2021/12/23 08:39:38;;;;;;;24.63;14.60;;;1.70;99.90;;;;;;5094004;28;20547;-57
2021/12/23 08:42:06;;;;;;;26.30;14.37;;;1.80;99.90;;;;;;5094709;28;20538;-57
2021/12/23 08:44:33;;;;;;;24.30;14.03;;;1.80;99.90;;;;;;5094131;28;20938;-57
2021/12/23 08:47:00;;;;;;;24.83;16.47;;;1.70;99.90;;;;;;5094110;28;20497;-57
2021/12/23 08:49:28;;;;;;;26.00;15.37;;;1.70;99.90;;;;;;5094182;28;20454;-57
2021/12/23 08:51:55;;;;;;;25.90;16.77;;;1.80;99.90;;;;;;5093851;28;20473;-57
2021/12/23 08:54:23;;;;;;;23.33;14.73;;;1.90;99.90;;;;;;5093436;28;20475;-57
2021/12/23 08:56:51;;;;;;;22.50;13.40;;;1.90;99.90;;;;;;5094176;28;20444;-57
2021/12/23 08:59:18;;;;;;;21.57;14.33;;;1.80;99.90;;;;;;5094089;28;20451;-57
2021/12/23 09:01:46;;;;;;;23.97;15.10;;;2.10;99.90;;;;;;5094162;28;20467;-57
2021/12/23 09:04:13;;;;;;;24.00;14.50;;;2.00;99.90;;;;;;5094124;28;20460;-56
2021/12/23 09:06:40;;;;;;;20.30;14.27;;;2.10;99.90;;;;;;5093378;28;20549;-58
2021/12/23 09:09:08;;;;;;;21.47;13.67;;;2.00;99.90;;;;;;5094139;28;20439;-57
2021/12/23 09:11:37;;;;;;;24.57;14.70;;;2.30;99.90;;;;;;5093810;28;20541;-57
2021/12/23 09:14:04;;;;;;;21.17;14.20;;;2.50;99.90;;;;;;5093870;28;20447;-58
2021/12/23 09:16:31;;;;;;;25.20;15.30;;;2.60;99.90;;;;;;5093727;28;20454;-57
2021/12/23 09:18:58;;;;;;;21.63;14.47;;;2.80;99.90;;;;;;5093302;28;20459;-57
2021/12/23 09:21:26;;;;;;;24.83;15.13;;;2.80;99.90;;;;;;5093280;28;20910;-57
2021/12/23 09:23:53;;;;;;;23.53;13.47;;;2.70;99.90;;;;;;5093593;28;20451;-57
2021/12/23 09:26:21;;;;;;;20.83;14.10;;;2.70;99.90;;;;;;5093455;28;20556;-57
2021/12/23 09:29:04;;;;;;;20.20;14.43;;;2.90;99.90;;;;;;5093665;28;20969;-58
2021/12/23 09:34:15;;;;;;;20.90;13.67;;;2.90;99.90;;;;;;5093329;28;20410;-57
2021/12/23 09:36:42;;;;;;;23.27;15.43;;;3.10;99.90;;;;;;5093343;28;20462;-57
2021/12/23 09:39:12;;;;;;;26.60;15.57;;;3.20;99.90;;;;;;5093339;28;20497;-57
2021/12/23 09:41:41;;;;;;;30.27;15.20;;;3.20;99.90;;;;;;5093403;28;20558;-57
2021/12/23 09:44:10;;;;;;;23.53;14.90;;;3.10;99.90;;;;;;5093444;28;20462;-57
2021/12/23 09:46:38;;;;;;;23.43;16.10;;;3.10;99.90;;;;;;5092851;28;20801;-56
2021/12/23 09:49:07;;;;;;;25.17;17.17;;;3.10;99.90;;;;;;5093195;28;20443;-57
2021/12/23 09:51:37;;;;;;;24.50;15.87;;;3.10;99.90;;;;;;5093158;28;20542;-57
2021/12/23 09:54:07;;;;;;;23.77;14.60;;;3.10;99.90;;;;;;5092961;28;20528;-57
2021/12/23 09:56:36;;;;;;;25.53;16.07;;;3.10;99.90;;;;;;5093147;28;20448;-57
2021/12/23 09:59:06;;;;;;;25.30;16.27;;;3.10;99.90;;;;;;5092885;28;20945;-57
2021/12/23 10:01:35;;;;;;;30.70;16.23;;;3.10;99.90;;;;;;5092744;28;20554;-57
2021/12/23 10:04:04;;;;;;;34.07;16.83;;;3.10;99.90;;;;;;5092770;28;20458;-57
2021/12/23 10:06:31;;;;;;;32.03;16.30;;;3.30;99.90;;;;;;5092441;28;20463;-57
2021/12/23 10:08:59;;;;;;;25.20;16.73;;;3.40;99.90;;;;;;5092699;28;20999;-57
2021/12/23 10:11:35;;;;;;;27.03;17.53;;;3.50;99.90;;;;;;5092674;28;20503;-58
2021/12/23 10:31:05;;;;;;;22.97;16.40;;;4.40;99.90;;;;;;5086729;28;20443;-57
2021/12/23 10:33:47;;;;;;;32.90;17.40;;;4.40;99.90;;;;;;5096393;28;20784;-57
2021/12/23 10:38:59;;;;;;;21.50;13.53;;;4.50;99.90;;;;;;5096410;28;20411;-57
2021/12/23 10:41:28;;;;;;;25.07;15.47;;;4.50;99.90;;;;;;5096485;28;20903;-57
2021/12/23 10:43:57;;;;;;;20.73;15.00;;;4.50;99.90;;;;;;5096363;28;20950;-57
2021/12/23 10:46:28;;;;;;;23.73;16.40;;;4.50;99.90;;;;;;5096004;28;20914;-57
2021/12/23 10:49:12;;;;;;;19.30;14.17;;;4.70;99.90;;;;;;5095929;28;20463;-57
2021/12/23 10:52:01;;;;;;;19.57;13.83;;;4.80;99.90;;;;;;5095881;28;20969;-57
2021/12/23 11:00:18;;;;;;;22.70;15.20;;;5.10;99.90;;;;;;5095974;28;20495;-57
2021/12/23 11:03:06;;;;;;;19.90;14.20;;;5.20;99.90;;;;;;5096185;28;20420;-57
2021/12/23 11:05:39;;;;;;;22.70;13.47;;;5.30;99.90;;;;;;5095511;28;20989;-57
2021/12/23 11:08:18;;;;;;;16.90;11.97;;;5.40;99.90;;;;;;5095563;28;20491;-57
2021/12/23 11:11:16;;;;;;;26.57;13.20;;;5.70;99.90;;;;;;5095689;28;20499;-57
2021/12/23 11:28:14;;;;;;;12.97;9.57;;;6.20;99.90;;;;;;5095711;28;20500;-56
2021/12/23 11:36:31;;;;;;;13.87;9.03;;;6.50;99.90;;;;;;5095589;28;20438;-57
2021/12/23 11:39:10;;;;;;;13.83;9.30;;;6.60;99.90;;;;;;5095612;28;20428;-57
2021/12/23 11:41:48;;;;;;;16.80;12.43;;;6.70;99.90;;;;;;5094998;28;20467;-57
2021/12/23 11:44:15;;;;;;;15.40;10.70;;;6.70;99.90;;;;;;5094892;28;20488;-57
2021/12/23 11:46:47;;;;;;;14.63;10.27;;;6.80;99.90;;;;;;5095158;28;20960;-57
2021/12/23 11:49:16;;;;;;;11.20;8.70;;;6.90;99.90;;;;;;5095372;28;20463;-57
2021/12/23 11:51:53;;;;;;;14.93;11.03;;;7.00;99.90;;;;;;5094768;28;20574;-57
2021/12/23 11:54:25;;;;;;;14.60;9.07;;;7.10;99.90;;;;;;5095148;28;20420;-57
2021/12/23 11:56:58;;;;;;;13.80;10.50;;;7.10;99.90;;;;;;5094818;28;20764;-57
2021/12/23 11:59:25;;;;;;;14.87;10.07;;;7.20;99.90;;;;;;5095196;28;20428;-57
2021/12/23 12:01:55;;;;;;;15.60;11.40;;;7.30;99.90;;;;;;5095223;28;20468;-57
2021/12/23 12:04:25;;;;;;;17.17;11.53;;;7.30;99.90;;;;;;5095138;28;20475;-58
2021/12/23 12:06:54;;;;;;;17.37;11.67;;;7.20;99.90;;;;;;5095093;28;20482;-57
2021/12/23 12:09:26;;;;;;;22.03;14.23;;;7.10;99.80;;;;;;5094903;28;20522;-57
2021/12/23 12:12:07;;;;;;;25.97;14.53;;;7.10;99.90;;;;;;5094861;28;20950;-57
2021/12/23 12:14:43;;;;;;;30.27;17.43;;;6.80;99.90;;;;;;5094611;28;20438;-57
2021/12/23 12:17:49;;;;;;;25.67;15.47;;;6.60;99.90;;;;;;5094266;28;20989;-57
2021/12/23 12:20:24;;;;;;;26.97;17.50;;;6.60;99.90;;;;;;5094884;28;20551;-58
2021/12/23 12:22:58;;;;;;;32.90;16.90;;;6.60;99.90;;;;;;5094838;28;20437;-59
2021/12/23 12:25:56;;;;;;;27.10;16.30;;;6.60;99.90;;;;;;5094242;28;20510;-58
2021/12/23 12:28:32;;;;;;;24.70;14.43;;;6.70;99.90;;;;;;5094302;28;20467;-59
2021/12/23 12:31:02;;;;;;;19.93;13.80;;;6.70;99.90;;;;;;5094419;28;20503;-58
2021/12/23 12:33:39;;;;;;;27.23;16.90;;;6.80;99.90;;;;;;5094459;28;20483;-58
2021/12/23 12:36:08;;;;;;;30.77;18.30;;;6.70;99.90;;;;;;5094645;28;20435;-57
2021/12/23 12:38:38;;;;;;;23.07;16.13;;;6.50;99.90;;;;;;5094175;28;20450;-58
2021/12/23 12:41:08;;;;;;;28.07;17.20;;;6.60;99.70;;;;;;5094528;28;20829;-57
2021/12/23 12:43:55;;;;;;;25.80;17.90;;;6.70;99.60;;;;;;5093702;28;20977;-57
2021/12/23 12:46:51;;;;;;;26.57;17.40;;;6.60;99.90;;;;;;5094165;28;20794;-57
2021/12/23 12:49:24;;;;;;;31.13;18.30;;;6.40;99.90;;;;;;5094317;28;20545;-57
2021/12/23 12:51:53;;;;;;;26.97;18.37;;;6.40;99.90;;;;;;5093646;28;20464;-57
2021/12/23 12:54:30;;;;;;;30.70;18.10;;;6.40;99.90;;;;;;5093783;28;20538;-57
2021/12/23 12:57:00;;;;;;;37.23;19.23;;;6.20;99.90;;;;;;5094187;28;20439;-57
2021/12/23 12:59:29;;;;;;;30.10;15.83;;;6.30;99.90;;;;;;5094195;28;20515;-57
2021/12/23 13:01:58;;;;;;;22.07;16.07;;;6.40;99.90;;;;;;5093873;28;20516;-57
2021/12/23 13:04:34;;;;;;;29.03;15.90;;;6.30;99.90;;;;;;5093475;28;20447;-57
2021/12/23 13:07:15;;;;;;;23.50;15.67;;;6.30;99.90;;;;;;5093894;28;20520;-58
2021/12/23 13:09:56;;;;;;;25.47;15.87;;;6.50;99.90;;;;;;5093646;28;20554;-58
2021/12/23 13:12:33;;;;;;;14.93;8.20;;;6.50;99.90;;;;;;5094071;28;20438;-57
2021/12/23 13:15:19;;;;;;;12.73;7.40;;;6.80;99.80;;;;;;5093754;28;20451;-57
2021/12/23 13:18:05;;;;;;;7.30;6.37;;;7.10;99.60;;;;;;5093551;28;20432;-58
2021/12/23 13:20:40;;;;;;;8.80;5.67;;;7.30;99.40;;;;;;5093969;28;20546;-57
2021/12/23 13:23:12;;;;;;;6.90;5.80;;;7.40;99.10;;;;;;5093535;28;20434;-58
2021/12/23 13:25:47;;;;;;;8.97;5.60;;;7.60;98.90;;;;;;5093376;28;20428;-58
2021/12/23 13:28:26;;;;;;;23.37;6.90;;;7.70;98.70;;;;;;5093449;28;20522;-57
2021/12/23 13:30:53;;;;;;;5.80;5.10;;;7.80;98.60;;;;;;5093085;28;20463;-57
2021/12/23 13:33:20;;;;;;;8.10;5.47;;;7.70;98.50;;;;;;5093300;28;20542;-57
2021/12/23 13:35:48;;;;;;;6.00;4.83;;;7.80;98.60;;;;;;5093157;28;20857;-57
2021/12/23 13:38:34;;;;;;;6.47;5.80;;;7.80;98.40;;;;;;5093393;28;20424;-57
2021/12/23 13:41:24;;;;;;;6.87;4.53;;;7.80;98.40;;;;;;5093322;28;20491;-57